Latest Weather Observations for Warwick

IDQ60801

Issued at 2:02 pm EST Sunday 5 July 2015 (issued every 30 minutes, with the page automatically refreshed every 10 minutes)

About weather observations | Map of weather stations | Latest weather observations for QLD | Other Formats
Station Details ID: 041525 Name: WARWICK Lat: -28.21 Lon: 152.10 Height: 475.4 m
Data from the previous 72 hours. | See also: Recent months at Warwick
Date/Time
EST
Temp
°C
App
Temp
°C
Dew
Point
Rel
Hum
%
Delta-T
°C
Wind Press
QNH
hPa
Press
MSL
hPa
Rain
since 9 am
mm
Dir
 
Spd
km/h
Gust
km/h
Spd
kts
Gust
kts
05/02:00pm 18.5 14.7 3.8 37 7.1 WNW 13 20 7 11 1020.1 1020.2 0.0
05/01:30pm 18.7 15.0 4.6 39 6.9 WNW 13 24 7 13 1020.3 1020.4 0.0
05/01:00pm 17.8 13.9 5.2 43 6.2 W 15 30 8 16 1020.5 1020.6 0.0
05/12:30pm 18.6 15.0 4.8 40 6.8 W 13 22 7 12 1020.9 1021.1 0.0
05/12:00pm 17.9 13.8 4.5 41 6.5 W 15 24 8 13 1021.5 1021.7 0.0
05/11:30am 17.5 13.1 4.8 43 6.2 W 17 30 9 16 1022.2 1022.3 0.0
05/10:30am 13.9 12.1 7.3 64 3.3 SW 6 9 3 5 1023.0 1023.2 0.0
05/10:00am 12.3 10.8 6.8 69 2.7 SSW 4 9 2 5 1023.2 1023.4 0.0
05/09:30am 9.1 8.2 5.9 80 1.5 CALM 0 0 0 0 1023.3 1023.5 0.0
05/09:00am 7.0 5.5 5.2 88 0.8 SW 2 6 1 3 1023.2 1023.4 0.0
05/08:30am 5.2 3.8 3.8 91 0.6 CALM 0 0 0 0 1023.2 1023.4 0.0
05/08:00am 4.3 2.9 3.8 97 0.2 CALM 0 0 0 0 1023.2 1023.4 0.0
05/07:30am 2.9 0.9 2.2 95 0.3 NE 2 6 1 3 1022.9 1023.1 0.0
05/07:00am 1.6 -0.2 1.3 98 0.1 CALM 0 0 0 0 1022.6 1022.7 0.0
05/06:30am 0.7 -1.2 0.4 98 0.1 CALM 0 0 0 0 1022.5 1022.6 0.0
05/05:30am 2.2 0.5 1.9 98 0.1 CALM 0 0 0 0 1021.7 1021.8 0.0
05/05:00am 2.2 0.5 1.9 98 0.1 CALM 0 0 0 0 1021.5 1021.7 0.0
05/04:30am 1.3 -0.5 1.0 98 0.1 CALM 0 0 0 0 1021.4 1021.6 0.0
05/04:00am 2.6 0.9 1.8 94 0.3 CALM 0 0 0 0 1021.5 1021.7 0.0
05/03:30am 3.0 1.4 2.5 96 0.2 CALM 0 0 0 0 1021.7 1021.8 0.0
05/03:00am 2.5 0.8 2.0 96 0.2 CALM 0 0 0 0 1021.9 1022.0 0.0
05/02:30am 3.5 2.0 3.0 97 0.2 CALM 0 0 0 0 1021.9 1022.0 0.0
05/02:00am 2.8 1.1 2.1 95 0.3 CALM 0 0 0 0 1022.3 1022.4 0.0
05/01:30am 2.8 1.2 2.6 99 0.1 CALM 0 0 0 0 1022.3 1022.4 0.0
05/01:00am 3.5 2.1 3.3 99 0.1 CALM 0 0 0 0 1022.4 1022.5 0.0
05/12:30am 3.9 2.5 3.4 97 0.2 CALM 0 0 0 0 1022.5 1022.6 0.0
 
Date/Time
EST
Temp
°C
App
Temp
°C
Dew
Point
Rel
Hum
%
Delta-T
°C
Wind Press
QNH
hPa
Press
MSL
hPa
Rain
since 9 am
mm
Dir
 
Spd
km/h
Gust
km/h
Spd
kts
Gust
kts
04/11:30pm 4.6 3.3 4.1 97 0.2 CALM 0 0 0 0 1022.6 1022.7 0.0
04/11:00pm 5.1 3.9 4.4 95 0.3 CALM 0 0 0 0 1022.6 1022.7 0.0
04/10:30pm 4.2 2.9 4.2 100 0.0 CALM 0 0 0 0 1022.6 1022.7 0.0
04/10:00pm 4.7 3.4 4.0 95 0.3 CALM 0 0 0 0 1022.4 1022.5 0.0
04/09:30pm 5.3 4.1 4.6 95 0.3 CALM 0 0 0 0 1022.4 1022.5 0.0
04/09:00pm 6.1 5.0 5.2 94 0.4 CALM 0 0 0 0 1022.3 1022.4 0.0
04/08:30pm 7.0 5.9 5.0 87 0.9 CALM 0 0 0 0 1022.2 1022.3 0.0
04/08:00pm 7.4 4.9 5.0 85 1.1 ENE 7 9 4 5 1022.0 1022.1 0.0
04/07:30pm 7.6 5.2 5.4 86 1.0 ENE 7 9 4 5 1021.7 1021.8 0.0
04/07:00pm 9.2 8.0 4.8 74 2.0 CALM 0 0 0 0 1021.3 1021.5 0.0
04/06:30pm 10.0 9.1 6.0 76 1.9 CALM 0 0 0 0 1021.0 1021.2 0.0
04/05:30pm 12.0 9.7 5.7 65 3.0 WNW 7 9 4 5 1020.5 1020.6 0.0
04/05:00pm 12.9 11.3 6.3 64 3.2 W 4 7 2 4 1020.2 1020.3 0.0
04/04:30pm 16.8 14.2 6.2 49 5.3 WSW 9 13 5 7 1020.3 1020.4 0.0
04/04:00pm 17.6 14.8 5.2 44 6.1 WSW 9 17 5 9 1020.3 1020.4 0.0
04/03:30pm 18.0 14.6 5.8 44 6.1 WSW 13 19 7 10 1020.4 1020.5 0.0
04/03:00pm 17.7 14.6 5.4 44 6.1 WSW 11 17 6 9 1020.6 1020.7 0.0
04/02:30pm 17.2 14.6 6.2 48 5.5 W 9 13 5 7 1020.7 1020.8 0.0
04/02:00pm 17.6 15.3 5.7 45 5.9 NNW 7 11 4 6 1020.7 1020.8 0.0
04/01:30pm 18.1 15.9 6.4 46 5.9 W 7 13 4 7 1021.0 1021.2 0.0
04/01:00pm 17.4 14.9 6.5 48 5.5 WNW 9 15 5 8 1021.5 1021.7 0.0
04/12:30pm 16.6 14.3 5.6 48 5.4 S 7 15 4 8 1022.1 1022.2 0.0
04/12:00pm 16.5 14.2 5.5 48 5.4 SW 7 13 4 7 1022.6 1022.7 0.0
04/11:30am 16.5 14.8 6.0 50 5.2 NNE 4 9 2 5 1023.2 1023.4 0.0
04/11:00am 14.8 13.8 5.8 55 4.4 CALM 0 6 0 3 1023.7 1023.9 0.0
04/10:30am 13.4 11.6 5.5 59 3.8 ENE 4 7 2 4 1024.2 1024.3 0.0
04/10:00am 12.0 11.0 5.5 64 3.1 CALM 0 6 0 3 1024.5 1024.7 0.0
04/09:30am 10.3 8.7 4.6 68 2.6 E 2 7 1 4 1024.6 1024.8 0.0
04/09:00am 7.8 5.1 3.7 75 1.8 ENE 7 9 4 5 1024.8 1025.0 0.2
04/08:30am 4.9 3.2 2.0 81 1.2 CALM 0 0 0 0 1024.5 1024.7 0.2
04/08:00am 1.6 -0.5 -0.6 85 0.8 CALM 0 0 0 0 1024.3 1024.4 0.2
04/07:30am -0.5 - - - - CALM 0 0 0 0 1024.2 1024.3 0.2
04/07:00am -1.2 - - - - CALM 0 0 0 0 1024.0 1024.1 0.2
04/06:30am -1.1 - - - - CALM 0 0 0 0 1023.5 1023.7 0.2
04/06:00am -2.2 - - - - CALM 0 0 0 0 1023.3 1023.5 0.2
04/05:30am -0.9 - - - - E 2 7 1 4 1023.0 1023.2 0.2
04/05:00am 0.1 - - - - NE 9 11 5 6 1023.0 1023.2 0.2
04/04:30am -0.5 - - - - CALM 0 0 0 0 1023.2 1023.4 0.2
04/04:00am -0.2 - - - - CALM 0 0 0 0 1023.4 1023.6 0.2
04/03:30am -1.2 - - - - CALM 0 0 0 0 1023.6 1023.8 0.2
04/03:00am -0.1 - - - - ENE 6 7 3 4 1023.4 1023.6 0.2
04/02:30am -0.4 - - - - CALM 0 0 0 0 1023.4 1023.6 0.2
04/02:00am -0.2 - - - - CALM 0 0 0 0 1023.5 1023.7 0.2
04/01:30am 0.6 -1.3 0.6 100 0.0 CALM 0 0 0 0 1023.5 1023.7 0.2
04/01:00am 1.3 -0.6 0.5 94 0.3 CALM 0 0 0 0 1023.5 1023.7 0.2
04/12:30am 2.0 0.3 1.7 98 0.1 CALM 0 0 0 0 1023.5 1023.7 0.2
04/12:00am 1.0 -0.8 1.0 100 0.0 CALM 0 0 0 0 1023.6 1023.8 0.2
 
Date/Time
EST
Temp
°C
App
Temp
°C
Dew
Point
Rel
Hum
%
Delta-T
°C
Wind Press
QNH
hPa
Press
MSL
hPa
Rain
since 9 am
mm
Dir
 
Spd
km/h
Gust
km/h
Spd
kts
Gust
kts
03/11:30pm 3.3 0.6 2.6 95 0.3 NE 6 9 3 5 1023.7 1023.9 0.2
03/11:00pm 2.9 1.2 1.6 91 0.5 CALM 0 0 0 0 1023.7 1023.9 0.2
03/10:30pm 3.5 0.6 2.8 95 0.3 NE 7 9 4 5 1024.1 1024.2 0.2
03/10:00pm 4.4 2.9 3.0 91 0.6 CALM 0 0 0 0 1024.3 1024.4 0.2
03/09:30pm 4.8 3.5 3.9 94 0.4 CALM 0 0 0 0 1024.3 1024.4 0.2
03/09:00pm 5.0 3.8 4.8 99 0.1 CALM 0 0 0 0 1024.3 1024.4 0.2
03/08:30pm 5.8 4.5 4.0 88 0.8 CALM 0 0 0 0 1024.0 1024.1 0.2
03/08:00pm 6.1 4.8 4.0 86 0.9 CALM 0 0 0 0 1023.7 1023.9 0.2
03/07:30pm 6.1 4.7 3.8 85 1.0 CALM 0 0 0 0 1023.6 1023.8 0.2
03/07:00pm 8.5 6.0 3.8 72 2.1 NE 6 7 3 4 1023.5 1023.7 0.2
03/06:30pm 8.3 7.0 4.0 74 1.9 CALM 0 0 0 0 1023.1 1023.3 0.0
03/06:00pm 9.4 8.1 6.0 79 1.6 SE 2 6 1 3 1022.8 1023.0 0.0
03/05:30pm 11.2 8.3 4.5 63 3.1 SSE 9 15 5 8 1022.5 1022.6 0.0
03/05:00pm 12.3 9.4 4.6 59 3.6 SE 9 15 5 8 1022.3 1022.4 0.0
03/04:30pm 13.9 9.7 3.8 50 4.7 SSE 15 20 8 11 1022.2 1022.3 0.0
03/04:00pm 14.6 10.4 3.9 48 5.0 SSE 15 24 8 13 1021.9 1022.0 0.0
03/03:30pm 15.2 11.4 4.0 47 5.3 SE 13 20 7 11 1021.7 1021.8 0.0
03/03:00pm 15.4 12.1 4.5 48 5.2 SE 11 17 6 9 1021.4 1021.6 0.0
03/02:30pm 15.3 11.1 3.8 46 5.4 SE 15 24 8 13 1021.5 1021.7 0.0
03/02:00pm 15.7 11.2 4.1 46 5.5 SSE 17 28 9 15 1021.3 1021.5 0.0
03/01:30pm 15.4 10.4 3.4 44 5.6 SE 19 28 10 15 1021.4 1021.6 0.0
03/01:00pm 15.4 10.7 3.1 43 5.7 SE 17 32 9 17 1021.9 1022.0 0.0
03/12:30pm 15.1 10.3 2.7 43 5.7 SSE 17 33 9 18 1022.1 1022.2 0.0
03/12:00pm 14.3 9.1 2.4 44 5.4 SSE 19 32 10 17 1022.6 1022.7 0.0
03/11:30am 14.0 8.4 1.3 42 5.6 SSE 20 30 11 16 1022.9 1023.1 0.0
03/11:00am 13.3 8.5 0.5 41 5.5 SE 15 33 8 18 1023.1 1023.3 0.0
03/10:30am 11.2 7.7 1.5 51 4.2 S 9 15 5 8 1023.5 1023.7 0.0
03/10:00am 6.3 4.4 2.8 78 1.5 SW 2 7 1 4 1023.8 1024.0 0.0
03/09:30am 3.8 1.3 1.8 87 0.8 SW 4 7 2 4 1023.7 1023.9 0.0
03/09:00am 1.8 - - - - CALM 0 0 0 0 1023.7 1023.9 0.0
03/08:30am -0.2 - - - - CALM 0 0 0 0 1023.6 1023.8 0.0
03/08:00am -0.8 - - - - CALM 0 0 0 0 1023.3 1023.5 0.0
03/07:30am -1.6 - - - - CALM 0 0 0 0 1022.9 1023.1 0.0
03/07:00am -1.0 - - - - CALM 0 2 0 1 1022.7 1022.9 0.0
03/06:30am -0.1 - - - - NE 2 6 1 3 1022.4 1022.5 0.0
03/06:00am 0.0 - - - - CALM 0 6 0 3 1022.2 1022.3 0.0
03/05:30am -0.7 - - - - CALM 0 0 0 0 1022.1 1022.2 0.0
03/05:00am -1.1 - - - - CALM 0 0 0 0 1021.8 1021.9 0.0
03/04:30am -2.1 - - - - CALM 0 0 0 0 1021.3 1021.5 0.0
03/04:00am -1.9 - - - - CALM 0 0 0 0 1021.2 1021.4 0.0
03/03:30am -1.1 - - - - CALM 0 0 0 0 1021.2 1021.4 0.0
03/03:00am -0.2 - - - - CALM 0 0 0 0 1021.2 1021.4 0.0
03/02:30am 1.2 -0.7 0.4 94 0.3 CALM 0 0 0 0 1021.3 1021.5 0.0
03/02:00am 0.8 -1.1 0.3 96 0.2 CALM 0 0 0 0 1021.4 1021.6 0.0
03/01:30am 1.0 -0.8 1.0 100 0.0 CALM 0 0 0 0 1021.5 1021.7 0.0
03/01:00am 0.4 -2.9 0.4 100 0.0 E 7 17 4 9 1021.4 1021.6 0.0
03/12:30am 5.1 1.8 2.7 84 1.0 NW 9 15 5 8 1021.2 1021.4 0.0
03/12:00am 3.5 1.8 2.0 90 0.6 CALM 0 0 0 0 1021.7 1021.8 0.0
 
Date/Time
EST
Temp
°C
App
Temp
°C
Dew
Point
Rel
Hum
%
Delta-T
°C
Wind Press
QNH
hPa
Press
MSL
hPa
Rain
since 9 am
mm
Dir
 
Spd
km/h
Gust
km/h
Spd
kts
Gust
kts
02/11:30pm 3.5 1.4 1.8 89 0.7 NE 2 7 1 4 1021.9 1022.0 0.0
02/11:00pm 4.9 2.1 2.2 83 1.1 NNW 6 11 3 6 1021.9 1022.0 0.0
02/10:30pm 4.3 1.5 1.8 84 1.0 NW 6 9 3 5 1022.0 1022.1 0.0
02/10:00pm 5.2 2.0 2.8 84 1.0 W 9 15 5 8 1022.4 1022.5 0.0
02/09:30pm 5.3 2.4 2.7 83 1.1 W 7 11 4 6 1022.3 1022.4 0.0
02/09:00pm 5.9 4.0 3.1 82 1.2 WNW 2 7 1 4 1022.1 1022.2 0.0
02/08:30pm 6.3 3.0 2.2 75 1.7 NW 9 13 5 7 1021.4 1021.6 0.0
02/08:00pm 6.8 4.0 2.0 71 2.0 NNW 6 11 3 6 1021.3 1021.5 0.0
02/07:30pm 8.2 4.4 1.8 64 2.7 NW 11 17 6 9 1021.3 1021.5 0.0
02/07:00pm 8.5 5.0 1.1 59 3.1 NW 9 13 5 7 1020.9 1021.1 0.0
02/06:30pm 8.8 5.2 0.6 56 3.4 WNW 9 13 5 7 1020.7 1020.8 0.0
02/06:00pm 9.0 5.3 -0.1 53 3.7 WNW 9 15 5 8 1020.4 1020.5 0.0
02/05:30pm 9.5 5.7 -0.6 49 4.1 W 9 17 5 9 1020.2 1020.3 0.0
02/05:00pm 10.3 5.4 -0.4 47 4.4 W 15 20 8 11 1020.1 1020.2 0.0
02/04:30pm 12.6 8.2 0.1 42 5.3 W 13 20 7 11 1020.0 1020.1 0.0
02/04:00pm 13.7 9.2 -0.1 38 5.9 W 13 22 7 12 1019.8 1019.9 0.0
02/03:30pm 14.0 8.7 -0.7 36 6.2 WSW 17 26 9 14 1019.7 1019.8 0.0
02/03:00pm 13.8 9.1 1.0 41 5.6 WNW 15 24 8 13 1019.7 1019.8 0.0
02/02:30pm 13.6 8.4 0.4 40 5.7 W 17 26 9 14 1019.8 1019.9 0.0

Other Formats:

Comma delimited format used in spreadsheet applications
http://www.bom.gov.au/fwo/IDQ60801/IDQ60801.94555.axf

JavaScript Object Notation format (JSON) in row-major order
http://www.bom.gov.au/fwo/IDQ60801/IDQ60801.94555.json